Time;durP1;ratioP1;P1;durP2;ratioP2;P2;SDS_P1;SDS_P2;PMS_P1;PMS_P2;Temp;Humidity;BMP_temperature;BMP_pressure;BME280_temperature;BME280_humidity;BME280_pressure;Samples;Min_cycle;Max_cycle;Signal;HPM_P1;HPM_P2
2022/10/16 00:01:08;;;;;;;3.03;2.73;;;23.90;69.80;;;;;;4883999;29;20462;-72
2022/10/16 00:03:37;;;;;;;3.10;2.90;;;23.80;69.80;;;;;;4878938;29;20465;-73
2022/10/16 00:06:06;;;;;;;2.90;2.70;;;23.80;69.80;;;;;;4896135;29;20469;-72
2022/10/16 00:08:36;;;;;;;3.90;2.83;;;23.90;69.80;;;;;;4894755;29;20500;-74
2022/10/16 00:11:07;;;;;;;2.57;2.37;;;23.80;69.80;;;;;;4891310;29;20465;-72
2022/10/16 00:13:37;;;;;;;2.50;2.40;;;23.80;69.80;;;;;;4900305;29;20455;-72
2022/10/16 00:16:08;;;;;;;2.60;2.30;;;23.80;69.80;;;;;;4899830;29;20898;-73
2022/10/16 00:18:37;;;;;;;3.03;2.83;;;23.80;69.80;;;;;;4898412;29;20482;-72
2022/10/16 00:21:06;;;;;;;3.87;3.20;;;23.80;69.80;;;;;;4895383;29;20487;-72
2022/10/16 00:23:34;;;;;;;2.70;2.50;;;23.80;69.80;;;;;;4900164;29;20928;-73
2022/10/16 00:26:04;;;;;;;3.10;2.90;;;23.80;69.80;;;;;;4898106;29;20464;-73
2022/10/16 00:28:32;;;;;;;2.67;2.47;;;23.80;69.80;;;;;;4899583;29;20479;-72
2022/10/16 00:31:04;;;;;;;2.67;2.47;;;23.80;69.80;;;;;;4892749;29;20515;-72
2022/10/16 00:33:34;;;;;;;2.50;2.30;;;23.80;69.80;;;;;;4899906;29;20450;-72
2022/10/16 00:36:04;;;;;;;2.73;2.53;;;23.80;69.80;;;;;;4889590;29;20462;-73
2022/10/16 00:38:32;;;;;;;2.37;2.20;;;23.80;69.80;;;;;;4887155;29;20922;-72
2022/10/16 00:41:00;;;;;;;6.00;3.50;;;23.80;69.80;;;;;;4894083;29;20465;-73
2022/10/16 00:43:38;;;;;;;2.90;2.70;;;23.80;69.80;;;;;;4898858;29;20516;-72
2022/10/16 00:46:13;;;;;;;3.40;3.20;;;23.80;69.70;;;;;;4897025;29;20468;-72
2022/10/16 00:48:46;;;;;;;2.90;2.40;;;23.80;69.70;;;;;;4888695;29;20558;-72
2022/10/16 00:51:15;;;;;;;2.73;2.53;;;23.80;69.70;;;;;;4896688;29;20924;-72
2022/10/16 00:53:43;;;;;;;2.57;2.37;;;23.80;69.70;;;;;;4899571;29;20483;-73
2022/10/16 00:56:12;;;;;;;2.43;2.23;;;23.80;69.70;;;;;;4897362;29;20476;-72
2022/10/16 00:58:40;;;;;;;2.73;2.47;;;23.80;69.70;;;;;;4899588;29;20543;-73
2022/10/16 01:01:08;;;;;;;3.00;2.20;;;23.80;69.70;;;;;;4893755;29;20571;-72
2022/10/16 01:03:38;;;;;;;2.57;2.37;;;23.80;69.80;;;;;;4899843;29;20452;-72
2022/10/16 01:06:20;;;;;;;2.40;2.20;;;23.80;69.80;;;;;;4896446;29;20467;-72
2022/10/16 01:09:06;;;;;;;1.80;1.70;;;23.80;69.70;;;;;;4897874;29;20507;-72
2022/10/16 01:11:39;;;;;;;2.27;2.10;;;23.80;69.80;;;;;;4897977;29;20483;-73
2022/10/16 01:14:16;;;;;;;3.77;1.70;;;23.80;69.80;;;;;;4899658;29;20469;-72
2022/10/16 01:16:50;;;;;;;2.20;2.00;;;23.80;69.80;;;;;;4891844;29;21204;-72
2022/10/16 01:19:27;;;;;;;2.13;2.03;;;23.80;69.80;;;;;;4896952;29;20581;-72
2022/10/16 01:21:59;;;;;;;2.20;2.10;;;23.80;69.80;;;;;;4890879;29;20509;-72
2022/10/16 01:24:34;;;;;;;2.23;2.10;;;23.80;69.80;;;;;;4894452;29;20475;-74
2022/10/16 01:27:15;;;;;;;2.07;1.93;;;23.80;69.80;;;;;;4897345;29;20475;-72
2022/10/16 01:29:53;;;;;;;2.40;2.20;;;23.70;69.70;;;;;;4895932;29;20477;-73
2022/10/16 01:32:33;;;;;;;3.40;2.30;;;23.70;69.70;;;;;;4890119;29;20479;-72
2022/10/16 01:35:04;;;;;;;2.10;1.93;;;23.70;69.70;;;;;;4891857;29;20492;-73
2022/10/16 01:37:39;;;;;;;2.40;2.20;;;23.70;69.70;;;;;;4886820;29;20464;-72
2022/10/16 01:40:12;;;;;;;2.13;2.00;;;23.70;69.70;;;;;;4894469;29;20604;-74
2022/10/16 01:42:47;;;;;;;1.90;1.80;;;23.70;69.60;;;;;;4880321;29;20614;-74
2022/10/16 01:45:18;;;;;;;2.07;1.87;;;23.70;69.60;;;;;;4883907;29;25008;-72
2022/10/16 01:47:48;;;;;;;2.27;2.17;;;23.70;69.60;;;;;;4897061;29;20454;-73
2022/10/16 01:50:22;;;;;;;3.97;2.00;;;23.70;69.60;;;;;;4896537;29;20873;-73
2022/10/16 01:52:53;;;;;;;2.20;2.00;;;23.70;69.60;;;;;;4899455;29;20449;-73
2022/10/16 01:55:25;;;;;;;2.40;2.30;;;23.70;69.60;;;;;;4896797;29;20497;-72
2022/10/16 01:57:57;;;;;;;2.77;2.30;;;23.70;69.60;;;;;;4893084;29;20807;-72
2022/10/16 02:00:27;;;;;;;2.00;1.90;;;23.70;69.60;;;;;;4896417;29;20472;-72
2022/10/16 02:02:56;;;;;;;2.17;1.97;;;23.70;69.60;;;;;;4898039;29;20464;-72
2022/10/16 02:05:29;;;;;;;1.80;1.70;;;23.70;69.60;;;;;;4898798;29;20457;-72
2022/10/16 02:07:57;;;;;;;2.43;2.23;;;23.70;69.50;;;;;;4897980;29;20466;-72
2022/10/16 02:10:31;;;;;;;2.20;1.97;;;23.70;69.50;;;;;;4898253;29;20535;-72
2022/10/16 02:13:06;;;;;;;1.70;1.60;;;23.70;69.50;;;;;;4897096;29;20880;-72
2022/10/16 02:15:34;;;;;;;2.03;1.90;;;23.70;69.50;;;;;;4890004;29;20788;-73
2022/10/16 02:18:03;;;;;;;2.60;1.97;;;23.70;69.50;;;;;;4889152;29;20463;-73
2022/10/16 02:20:37;;;;;;;2.67;2.47;;;23.70;69.50;;;;;;4895968;29;20477;-73
2022/10/16 02:23:08;;;;;;;1.50;1.40;;;23.70;69.50;;;;;;4895752;29;20462;-71
2022/10/16 02:25:41;;;;;;;2.00;1.80;;;23.70;69.50;;;;;;4897792;29;20439;-71
2022/10/16 02:28:14;;;;;;;2.33;2.13;;;23.70;69.50;;;;;;4895978;29;20492;-71
2022/10/16 02:30:48;;;;;;;2.33;2.10;;;23.70;69.40;;;;;;4898078;29;20969;-71
2022/10/16 02:33:17;;;;;;;1.90;1.80;;;23.70;69.40;;;;;;4896057;29;20458;-72
2022/10/16 02:35:48;;;;;;;2.00;1.83;;;23.70;69.40;;;;;;4896036;29;20498;-71
2022/10/16 02:38:17;;;;;;;1.80;1.70;;;23.70;69.40;;;;;;4896214;29;20951;-71
2022/10/16 02:40:46;;;;;;;2.03;1.93;;;23.70;69.40;;;;;;4894566;29;21017;-72
2022/10/16 02:43:16;;;;;;;1.90;1.80;;;23.70;69.40;;;;;;4897625;29;20467;-72
2022/10/16 02:45:45;;;;;;;2.17;2.00;;;23.70;69.40;;;;;;4894663;29;20940;-71
2022/10/16 02:48:13;;;;;;;2.03;1.93;;;23.70;69.40;;;;;;4897341;29;20461;-71
2022/10/16 02:50:41;;;;;;;1.93;1.73;;;23.70;69.40;;;;;;4888942;29;21032;-73
2022/10/16 02:53:09;;;;;;;3.40;2.00;;;23.70;69.40;;;;;;4882553;29;20476;-71
2022/10/16 02:55:37;;;;;;;1.87;1.73;;;23.70;69.40;;;;;;4890630;29;20479;-72
2022/10/16 02:58:05;;;;;;;1.93;1.83;;;23.70;69.40;;;;;;4900045;29;20466;-71
2022/10/16 03:00:35;;;;;;;1.70;1.60;;;23.70;69.30;;;;;;4894579;29;20890;-72
2022/10/16 03:03:03;;;;;;;1.90;1.80;;;23.70;69.30;;;;;;4897016;29;20558;-72
2022/10/16 03:05:31;;;;;;;1.87;1.77;;;23.70;69.30;;;;;;4896095;29;20464;-74
2022/10/16 03:08:00;;;;;;;3.63;1.70;;;23.70;69.30;;;;;;4896442;29;20550;-72
2022/10/16 03:10:28;;;;;;;2.33;2.13;;;23.70;69.30;;;;;;4896347;29;20476;-72
2022/10/16 03:12:56;;;;;;;1.80;1.70;;;23.70;69.30;;;;;;4895780;29;20795;-71
2022/10/16 03:15:25;;;;;;;1.90;1.80;;;23.70;69.30;;;;;;4897319;29;20521;-71
2022/10/16 03:17:55;;;;;;;2.13;2.00;;;23.70;69.30;;;;;;4893814;29;20458;-71
2022/10/16 03:20:23;;;;;;;1.90;1.70;;;23.70;69.30;;;;;;4896582;29;20487;-71
2022/10/16 03:22:51;;;;;;;2.10;1.93;;;23.60;69.30;;;;;;4896999;29;20436;-72
2022/10/16 03:25:19;;;;;;;2.10;2.00;;;23.60;69.30;;;;;;4896022;29;20455;-71
2022/10/16 03:27:47;;;;;;;1.97;1.87;;;23.60;69.30;;;;;;4894662;29;20536;-71
2022/10/16 03:30:16;;;;;;;2.00;1.90;;;23.70;69.30;;;;;;4896710;29;20475;-71
2022/10/16 03:32:45;;;;;;;2.57;1.60;;;23.60;69.30;;;;;;4896235;29;20849;-72
2022/10/16 03:35:15;;;;;;;1.90;1.80;;;23.60;69.30;;;;;;4896804;29;20459;-72
2022/10/16 03:37:43;;;;;;;1.90;1.80;;;23.60;69.30;;;;;;4894590;29;20824;-72
2022/10/16 03:40:11;;;;;;;2.50;2.30;;;23.60;69.30;;;;;;4897145;29;20436;-72
2022/10/16 03:42:39;;;;;;;2.97;2.07;;;23.60;69.30;;;;;;4892573;29;20463;-71
2022/10/16 03:45:08;;;;;;;1.27;1.27;;;23.60;69.30;;;;;;4893423;29;20463;-72
2022/10/16 03:47:36;;;;;;;1.70;1.60;;;23.60;69.30;;;;;;4895956;29;20514;-72
2022/10/16 03:50:06;;;;;;;2.00;1.90;;;23.60;69.20;;;;;;4899604;29;20481;-73
2022/10/16 03:52:35;;;;;;;2.00;1.90;;;23.60;69.20;;;;;;4897859;29;20964;-73
2022/10/16 03:55:04;;;;;;;1.80;1.70;;;23.60;69.20;;;;;;4900261;29;20815;-71
2022/10/16 03:57:32;;;;;;;1.80;1.70;;;23.60;69.20;;;;;;4882830;29;20973;-72
2022/10/16 04:00:00;;;;;;;2.00;1.90;;;23.60;69.20;;;;;;4900111;29;20474;-72
2022/10/16 04:02:39;;;;;;;1.80;1.70;;;23.60;69.20;;;;;;4897292;29;20522;-71
2022/10/16 04:05:08;;;;;;;2.23;2.13;;;23.60;69.20;;;;;;4894851;29;20872;-72
2022/10/16 04:07:44;;;;;;;1.80;1.70;;;23.60;69.20;;;;;;4891797;29;20466;-71
2022/10/16 04:10:16;;;;;;;1.70;1.60;;;23.60;69.20;;;;;;4896770;29;20493;-72
2022/10/16 04:12:44;;;;;;;1.93;1.83;;;23.60;69.20;;;;;;4894978;29;20471;-71
2022/10/16 04:15:12;;;;;;;2.10;1.90;;;23.60;69.20;;;;;;4898045;29;20452;-72
2022/10/16 04:17:41;;;;;;;1.90;1.40;;;23.60;69.20;;;;;;4905629;29;20826;-74
2022/10/16 04:20:09;;;;;;;1.73;1.63;;;23.60;69.20;;;;;;4898175;29;20486;-73
2022/10/16 04:22:39;;;;;;;1.73;1.63;;;23.60;69.20;;;;;;4894369;29;20559;-71
2022/10/16 04:25:07;;;;;;;2.30;2.10;;;23.60;69.20;;;;;;4889401;29;20462;-73
2022/10/16 04:27:35;;;;;;;1.60;1.50;;;23.60;69.20;;;;;;4897399;29;20464;-72
2022/10/16 04:30:06;;;;;;;2.13;1.93;;;23.60;69.20;;;;;;4897626;29;20489;-72
2022/10/16 04:32:34;;;;;;;1.73;1.63;;;23.50;69.20;;;;;;4897439;29;20506;-72
2022/10/16 04:35:02;;;;;;;1.80;1.70;;;23.60;69.10;;;;;;4899996;29;20462;-72
2022/10/16 04:37:30;;;;;;;2.40;2.20;;;23.50;69.10;;;;;;4896709;29;20539;-72
2022/10/16 04:40:00;;;;;;;1.87;1.77;;;23.50;69.10;;;;;;4893040;29;20934;-72
2022/10/16 04:42:28;;;;;;;1.60;1.50;;;23.50;69.10;;;;;;4899572;29;20453;-73
2022/10/16 04:44:56;;;;;;;2.23;2.10;;;23.50;69.10;;;;;;4896665;29;20456;-72
2022/10/16 04:47:24;;;;;;;2.10;1.90;;;23.50;69.10;;;;;;4893218;29;20500;-72
2022/10/16 04:49:53;;;;;;;1.70;1.60;;;23.50;69.10;;;;;;4890114;29;20900;-72
2022/10/16 04:52:21;;;;;;;1.70;1.60;;;23.50;69.10;;;;;;4893379;29;20456;-73
2022/10/16 04:54:50;;;;;;;1.73;1.43;;;23.50;69.10;;;;;;4892010;29;20500;-72
2022/10/16 04:57:19;;;;;;;1.63;1.53;;;23.50;69.10;;;;;;4898012;29;20449;-72
2022/10/16 04:59:47;;;;;;;2.17;1.90;;;23.50;69.10;;;;;;4899392;29;20444;-72
2022/10/16 05:02:15;;;;;;;2.10;1.87;;;23.50;69.10;;;;;;4892585;29;20459;-72
2022/10/16 05:04:44;;;;;;;1.60;1.50;;;23.50;69.00;;;;;;4898780;29;20462;-73
2022/10/16 05:07:12;;;;;;;1.77;1.63;;;23.50;69.10;;;;;;4893907;29;20462;-73
2022/10/16 05:09:40;;;;;;;1.70;1.60;;;23.50;69.10;;;;;;4895375;29;20513;-72
2022/10/16 05:12:08;;;;;;;1.50;1.40;;;23.50;69.00;;;;;;4898925;29;20458;-72
2022/10/16 05:14:37;;;;;;;1.80;1.50;;;23.50;69.00;;;;;;4897835;29;20958;-73
2022/10/16 05:17:06;;;;;;;1.83;1.73;;;23.50;69.00;;;;;;4896581;29;20465;-75
2022/10/16 05:19:34;;;;;;;1.60;1.50;;;23.50;69.00;;;;;;4890542;29;20488;-72
2022/10/16 05:22:02;;;;;;;2.10;2.00;;;23.50;69.00;;;;;;4888586;29;20543;-73
2022/10/16 05:24:30;;;;;;;1.93;1.83;;;23.50;69.00;;;;;;4893125;29;20478;-72
2022/10/16 05:27:01;;;;;;;2.07;1.90;;;23.50;69.00;;;;;;4898474;29;21345;-73
2022/10/16 05:29:29;;;;;;;1.40;1.30;;;23.50;69.00;;;;;;4894840;29;20473;-73
2022/10/16 05:31:58;;;;;;;1.83;1.73;;;23.50;69.00;;;;;;4883869;29;20854;-72
2022/10/16 05:34:27;;;;;;;1.60;1.50;;;23.50;69.00;;;;;;4898119;29;20866;-73
2022/10/16 05:36:55;;;;;;;1.67;1.57;;;23.50;69.00;;;;;;4895959;29;20459;-73
2022/10/16 05:39:23;;;;;;;1.60;1.50;;;23.50;69.00;;;;;;4895328;29;21534;-74
2022/10/16 05:41:52;;;;;;;2.23;1.80;;;23.50;68.90;;;;;;4890780;29;20974;-74
2022/10/16 05:44:20;;;;;;;1.90;1.80;;;23.50;69.00;;;;;;4891351;29;20800;-73
2022/10/16 05:46:48;;;;;;;1.87;1.77;;;23.50;69.00;;;;;;4893347;29;22201;-74
2022/10/16 05:49:18;;;;;;;2.17;2.00;;;23.50;69.00;;;;;;4893753;29;20500;-75
2022/10/16 05:51:46;;;;;;;1.77;1.67;;;23.50;69.10;;;;;;4889283;29;20824;-74
2022/10/16 05:54:14;;;;;;;2.43;1.90;;;23.50;69.10;;;;;;4893154;29;20569;-72
2022/10/16 05:56:43;;;;;;;1.60;1.50;;;23.50;69.00;;;;;;4892567;29;20497;-73
2022/10/16 05:59:11;;;;;;;1.60;1.50;;;23.50;69.10;;;;;;4893662;29;20561;-73
2022/10/16 06:01:39;;;;;;;1.73;1.63;;;23.50;69.10;;;;;;4894195;29;20457;-74
2022/10/16 06:04:08;;;;;;;2.40;1.77;;;23.50;69.10;;;;;;4898866;29;20467;-74
2022/10/16 06:06:38;;;;;;;4.13;1.90;;;23.50;69.10;;;;;;4895508;29;20467;-70
2022/10/16 06:09:07;;;;;;;1.50;1.40;;;23.50;69.20;;;;;;4892392;29;20451;-73
2022/10/16 06:11:37;;;;;;;4.00;1.87;;;23.50;69.20;;;;;;4887705;29;20554;-71
2022/10/16 06:14:06;;;;;;;2.97;1.60;;;23.50;69.30;;;;;;4895090;29;20461;-72
2022/10/16 06:16:36;;;;;;;1.60;1.50;;;23.50;69.30;;;;;;4895448;29;20474;-71
2022/10/16 06:19:06;;;;;;;1.47;1.37;;;23.50;69.30;;;;;;4895896;29;20476;-72
2022/10/16 06:21:34;;;;;;;1.87;1.77;;;23.50;69.30;;;;;;4888033;29;20474;-71
2022/10/16 06:24:04;;;;;;;1.70;1.60;;;23.50;69.40;;;;;;4895395;29;20449;-72
2022/10/16 06:26:32;;;;;;;1.63;1.53;;;23.50;69.50;;;;;;4890871;29;20501;-73
2022/10/16 06:29:01;;;;;;;2.67;2.20;;;23.50;69.60;;;;;;4893692;29;20460;-71
2022/10/16 06:31:33;;;;;;;5.13;3.90;;;23.50;69.60;;;;;;4895291;29;20475;-72
2022/10/16 06:34:01;;;;;;;2.70;2.40;;;23.50;69.60;;;;;;4889067;29;20501;-71
2022/10/16 06:36:30;;;;;;;1.60;1.50;;;23.50;69.90;;;;;;4890624;29;20489;-75
2022/10/16 06:38:58;;;;;;;2.10;1.90;;;23.50;69.50;;;;;;4891988;29;20517;-72
2022/10/16 06:41:27;;;;;;;5.93;2.83;;;23.50;69.60;;;;;;4896892;29;20549;-72
2022/10/16 06:43:56;;;;;;;4.67;2.80;;;23.50;69.60;;;;;;4894273;29;20567;-71
2022/10/16 06:46:26;;;;;;;2.57;2.17;;;23.50;69.50;;;;;;4891290;29;20547;-71
2022/10/16 06:48:54;;;;;;;3.00;2.20;;;23.50;69.50;;;;;;4887034;29;20460;-71
2022/10/16 06:51:24;;;;;;;2.87;2.30;;;23.50;69.50;;;;;;4891991;29;20490;-72
2022/10/16 06:53:54;;;;;;;2.80;2.10;;;23.50;69.50;;;;;;4892538;29;20502;-71
2022/10/16 06:56:34;;;;;;;2.53;2.17;;;23.50;69.50;;;;;;4893809;29;20836;-72
2022/10/16 06:59:03;;;;;;;2.03;1.90;;;23.50;69.50;;;;;;4891177;29;20491;-71
2022/10/16 07:01:31;;;;;;;3.43;2.27;;;23.50;69.50;;;;;;4886803;29;20457;-72
2022/10/16 07:04:00;;;;;;;2.30;2.10;;;23.50;69.50;;;;;;4886234;29;20991;-74
2022/10/16 07:06:33;;;;;;;2.30;2.10;;;23.50;69.50;;;;;;4888343;29;20461;-74
2022/10/16 07:09:04;;;;;;;3.03;2.57;;;23.50;69.40;;;;;;4895624;29;20456;-74
2022/10/16 07:11:34;;;;;;;5.77;2.37;;;23.50;69.40;;;;;;4891556;29;20542;-77
2022/10/16 07:14:02;;;;;;;3.77;2.27;;;23.50;69.60;;;;;;4891003;29;20467;-77
2022/10/16 07:16:32;;;;;;;4.13;2.03;;;23.50;69.70;;;;;;4893451;29;20449;-78
2022/10/16 07:19:02;;;;;;;2.30;2.20;;;23.50;69.90;;;;;;4895458;29;21079;-76
2022/10/16 07:21:35;;;;;;;3.30;2.40;;;23.60;69.80;;;;;;4895308;29;20926;-76
2022/10/16 07:24:06;;;;;;;2.53;2.30;;;23.60;69.90;;;;;;4900214;29;20451;-72
2022/10/16 07:26:38;;;;;;;3.20;2.10;;;23.60;69.90;;;;;;4900184;29;20468;-75
2022/10/16 07:29:08;;;;;;;4.23;2.37;;;23.60;69.90;;;;;;4899836;29;20504;-72
2022/10/16 07:31:38;;;;;;;2.40;2.17;;;23.70;69.90;;;;;;4895631;29;20977;-80
2022/10/16 07:34:06;;;;;;;3.83;2.23;;;23.70;69.80;;;;;;4899311;29;20462;-77
2022/10/16 07:36:35;;;;;;;2.43;2.00;;;23.70;69.90;;;;;;4899601;29;20471;-77
2022/10/16 07:39:03;;;;;;;3.47;2.00;;;23.70;69.90;;;;;;4899409;29;20540;-76
2022/10/16 07:41:32;;;;;;;3.40;2.10;;;23.70;69.90;;;;;;4896224;29;20439;-70
2022/10/16 07:44:02;;;;;;;2.40;2.20;;;23.70;70.00;;;;;;4897339;29;20464;-71
2022/10/16 07:46:30;;;;;;;3.90;2.40;;;23.80;69.80;;;;;;4891170;29;20831;-71
2022/10/16 07:48:58;;;;;;;4.10;2.43;;;23.80;69.80;;;;;;4894308;29;20442;-73
2022/10/16 07:51:27;;;;;;;3.50;2.23;;;23.80;69.80;;;;;;4894892;29;20823;-69
2022/10/16 07:53:56;;;;;;;2.20;2.10;;;23.80;69.60;;;;;;4898364;29;20495;-70
2022/10/16 07:56:24;;;;;;;1.70;1.60;;;23.80;69.50;;;;;;4898149;29;20453;-69
2022/10/16 07:58:52;;;;;;;2.17;1.97;;;23.80;69.40;;;;;;4900002;29;20446;-69
2022/10/16 08:01:22;;;;;;;2.10;1.90;;;23.80;69.50;;;;;;4896831;29;20452;-69
2022/10/16 08:03:52;;;;;;;2.13;1.80;;;23.80;69.40;;;;;;4897036;29;20450;-69
2022/10/16 08:06:22;;;;;;;2.47;2.27;;;23.80;69.30;;;;;;4893265;29;20578;-70
2022/10/16 08:08:57;;;;;;;2.60;2.10;;;23.80;69.30;;;;;;4899851;29;20441;-69
2022/10/16 08:11:25;;;;;;;2.27;2.07;;;23.80;69.20;;;;;;4900136;29;20450;-70
2022/10/16 08:13:53;;;;;;;3.30;2.17;;;23.80;69.20;;;;;;4890612;29;20478;-70
2022/10/16 08:16:23;;;;;;;4.13;1.93;;;23.80;69.20;;;;;;4895087;29;20559;-70
2022/10/16 08:18:51;;;;;;;2.27;2.07;;;23.80;69.20;;;;;;4899481;29;20543;-70
2022/10/16 08:21:22;;;;;;;2.80;2.07;;;23.80;69.10;;;;;;4889872;29;20451;-69
2022/10/16 08:23:51;;;;;;;2.80;2.60;;;23.80;69.10;;;;;;4896190;29;20471;-70
2022/10/16 08:26:26;;;;;;;1.80;1.70;;;23.80;69.20;;;;;;4899767;29;20990;-70
2022/10/16 08:28:55;;;;;;;1.90;1.73;;;23.80;69.20;;;;;;4896902;29;20456;-71
2022/10/16 08:31:25;;;;;;;2.20;2.00;;;23.80;69.20;;;;;;4883794;29;20797;-70
2022/10/16 08:33:57;;;;;;;2.87;1.77;;;23.80;69.20;;;;;;4888609;29;20542;-70
2022/10/16 08:36:25;;;;;;;2.57;1.97;;;23.80;69.10;;;;;;4896175;29;20487;-70
2022/10/16 08:38:54;;;;;;;3.23;2.47;;;23.80;69.30;;;;;;4899581;29;20576;-70
2022/10/16 08:42:01;;;;;;;2.93;1.83;;;23.80;69.20;;;;;;4899210;29;20499;-69
2022/10/16 08:44:48;;;;;;;2.70;1.87;;;23.80;69.30;;;;;;4892750;29;20467;-70
2022/10/16 08:47:21;;;;;;;3.70;1.90;;;23.80;69.40;;;;;;4894422;29;20453;-69
2022/10/16 08:49:57;;;;;;;2.00;1.90;;;23.80;69.40;;;;;;4892316;29;20468;-69
2022/10/16 08:52:30;;;;;;;2.77;2.33;;;23.80;69.50;;;;;;4896678;29;20850;-69
2022/10/16 08:54:58;;;;;;;1.93;1.83;;;23.80;69.50;;;;;;4897386;29;20598;-69
2022/10/16 08:57:27;;;;;;;2.80;2.17;;;23.80;69.40;;;;;;4899194;29;20431;-71
2022/10/16 09:00:00;;;;;;;2.40;2.30;;;23.80;69.50;;;;;;4898913;29;20983;-69
2022/10/16 09:02:35;;;;;;;2.20;2.00;;;23.70;69.40;;;;;;4895778;29;20456;-69
2022/10/16 09:05:18;;;;;;;2.60;2.33;;;23.70;69.40;;;;;;4879612;29;20771;-69
2022/10/16 09:07:55;;;;;;;2.53;2.33;;;23.70;69.40;;;;;;4898707;29;20461;-71
2022/10/16 09:10:34;;;;;;;1.53;1.43;;;23.70;69.50;;;;;;4897989;29;21110;-69
2022/10/16 09:13:13;;;;;;;1.97;1.87;;;23.70;69.40;;;;;;4895121;29;20477;-70
2022/10/16 09:15:49;;;;;;;1.90;1.80;;;23.80;69.60;;;;;;4899872;29;20831;-70
2022/10/16 09:18:23;;;;;;;2.10;1.87;;;23.70;69.40;;;;;;4896267;29;20475;-69
2022/10/16 09:21:02;;;;;;;2.03;1.93;;;23.70;69.40;;;;;;4896359;29;20485;-69
2022/10/16 09:23:34;;;;;;;2.30;2.10;;;23.70;69.30;;;;;;4897947;29;20664;-69
2022/10/16 09:26:03;;;;;;;2.67;2.47;;;23.80;69.30;;;;;;4892019;29;20936;-72
2022/10/16 09:28:31;;;;;;;2.03;1.50;;;23.80;69.30;;;;;;4881479;29;20448;-69
2022/10/16 09:30:59;;;;;;;2.10;2.00;;;23.80;69.30;;;;;;4890299;29;20458;-70
2022/10/16 09:33:35;;;;;;;1.77;1.67;;;23.80;69.30;;;;;;4898159;29;20485;-69
2022/10/16 09:36:06;;;;;;;2.90;2.20;;;23.80;69.30;;;;;;4898158;29;20538;-70
2022/10/16 09:38:36;;;;;;;2.30;2.00;;;23.80;69.30;;;;;;4891565;29;20460;-70
2022/10/16 09:41:16;;;;;;;1.63;1.53;;;23.80;69.30;;;;;;4884185;29;20476;-70
2022/10/16 09:43:52;;;;;;;4.33;2.97;;;23.80;69.30;;;;;;4888461;29;20464;-69
2022/10/16 09:46:27;;;;;;;2.00;1.90;;;23.80;69.30;;;;;;4899123;29;20454;-69
2022/10/16 09:48:59;;;;;;;2.20;2.00;;;23.80;69.20;;;;;;4897726;29;20485;-69
2022/10/16 09:51:29;;;;;;;3.77;1.60;;;23.80;69.10;;;;;;4898151;29;20493;-69
2022/10/16 09:54:00;;;;;;;1.87;1.77;;;23.80;69.20;;;;;;4896979;29;20502;-70
2022/10/16 09:56:30;;;;;;;2.30;2.10;;;23.80;69.10;;;;;;4896999;29;20558;-69
2022/10/16 09:59:00;;;;;;;1.83;1.57;;;23.90;69.20;;;;;;4897303;29;20514;-69
2022/10/16 10:01:32;;;;;;;1.73;1.63;;;23.90;69.10;;;;;;4899291;29;20433;-69
2022/10/16 10:04:02;;;;;;;1.50;1.40;;;23.90;69.20;;;;;;4897706;29;20461;-69
2022/10/16 10:06:33;;;;;;;2.90;1.87;;;24.00;69.10;;;;;;4896640;29;20921;-69
2022/10/16 10:09:06;;;;;;;2.00;1.60;;;24.00;69.00;;;;;;4889952;29;20549;-70
2022/10/16 10:11:39;;;;;;;1.97;1.87;;;24.00;69.00;;;;;;4895687;29;20472;-70
2022/10/16 10:14:16;;;;;;;2.13;1.80;;;24.00;68.90;;;;;;4895189;29;20984;-70
2022/10/16 10:16:44;;;;;;;2.40;1.67;;;24.00;68.90;;;;;;4891245;29;20461;-70
2022/10/16 10:19:17;;;;;;;2.20;2.00;;;24.00;68.90;;;;;;4896444;29;20488;-69
2022/10/16 10:21:46;;;;;;;1.97;1.87;;;24.00;68.80;;;;;;4894582;29;20541;-70
2022/10/16 10:24:16;;;;;;;2.67;2.47;;;24.00;68.80;;;;;;4892387;29;20496;-69
2022/10/16 10:26:52;;;;;;;1.70;1.60;;;24.00;68.80;;;;;;4896979;29;20457;-69
2022/10/16 10:29:35;;;;;;;2.87;1.80;;;24.00;68.80;;;;;;4895003;29;20452;-69
2022/10/16 10:32:15;;;;;;;1.87;1.63;;;24.00;68.80;;;;;;4892639;29;20531;-69
2022/10/16 10:35:06;;;;;;;2.17;2.07;;;24.10;68.90;;;;;;4896015;29;20981;-69
2022/10/16 10:37:48;;;;;;;1.93;1.83;;;24.10;68.90;;;;;;4897804;29;20443;-70
2022/10/16 10:40:28;;;;;;;1.70;1.60;;;24.10;68.90;;;;;;4894551;29;20549;-69
2022/10/16 10:43:04;;;;;;;3.57;2.37;;;24.10;68.80;;;;;;4894204;29;20487;-70
2022/10/16 10:45:42;;;;;;;2.23;2.13;;;24.10;68.90;;;;;;4894976;29;20449;-70
2022/10/16 10:48:28;;;;;;;1.77;1.67;;;24.10;68.70;;;;;;4892193;29;20453;-69
2022/10/16 10:51:02;;;;;;;2.20;1.57;;;24.10;69.10;;;;;;4896225;29;20449;-70
2022/10/16 10:53:44;;;;;;;1.93;1.83;;;24.10;68.90;;;;;;4895951;29;20791;-70
2022/10/16 10:56:24;;;;;;;1.83;1.73;;;24.10;68.90;;;;;;4896656;29;20455;-69
2022/10/16 10:59:10;;;;;;;1.87;1.77;;;24.10;68.80;;;;;;4894929;29;20821;-70
2022/10/16 11:01:46;;;;;;;2.00;1.90;;;24.10;68.70;;;;;;4892303;29;20927;-70
2022/10/16 11:05:08;;;;;;;1.30;1.30;;;24.10;68.70;;;;;;4886774;29;20457;-69
2022/10/16 11:07:42;;;;;;;1.77;1.67;;;24.10;68.70;;;;;;4865729;29;20460;-70
2022/10/16 11:10:16;;;;;;;1.60;1.50;;;24.10;68.80;;;;;;4896123;29;20450;-70
2022/10/16 11:12:48;;;;;;;1.90;1.80;;;24.10;68.80;;;;;;4892142;29;20467;-69
2022/10/16 11:15:20;;;;;;;1.80;1.70;;;24.10;68.90;;;;;;4894339;29;20453;-69
2022/10/16 11:17:54;;;;;;;2.13;2.03;;;24.10;68.90;;;;;;4890781;29;20485;-70
2022/10/16 11:20:26;;;;;;;1.60;1.50;;;24.10;69.20;;;;;;4896041;29;20974;-70
2022/10/16 11:23:00;;;;;;;1.80;1.70;;;24.10;69.20;;;;;;4896323;29;21017;-70
2022/10/16 11:25:30;;;;;;;1.83;1.73;;;24.10;69.00;;;;;;4896386;29;20464;-69
2022/10/16 11:28:04;;;;;;;1.47;1.37;;;24.10;68.80;;;;;;4896062;29;20446;-70
2022/10/16 11:30:41;;;;;;;1.93;1.83;;;24.10;68.90;;;;;;4889581;29;20447;-69
2022/10/16 11:33:23;;;;;;;1.33;1.30;;;24.10;68.90;;;;;;4895686;29;20458;-69
2022/10/16 11:36:00;;;;;;;1.60;1.50;;;24.10;68.80;;;;;;4893842;29;20493;-69
2022/10/16 11:38:36;;;;;;;1.90;1.80;;;24.20;68.70;;;;;;4895187;29;20477;-70
2022/10/16 11:41:16;;;;;;;1.77;1.67;;;24.20;68.80;;;;;;4883759;29;20459;-70
2022/10/16 11:43:51;;;;;;;1.63;1.53;;;24.20;68.80;;;;;;4891501;29;20550;-69
2022/10/16 11:46:25;;;;;;;1.50;1.40;;;24.20;68.70;;;;;;4896845;29;20875;-69
2022/10/16 11:49:01;;;;;;;1.60;1.50;;;24.20;68.80;;;;;;4890427;29;20539;-69
2022/10/16 11:51:36;;;;;;;1.83;1.73;;;24.20;69.30;;;;;;4895499;29;20553;-69
2022/10/16 11:54:17;;;;;;;1.70;1.40;;;24.30;68.90;;;;;;4882795;29;21021;-69
2022/10/16 11:56:47;;;;;;;2.03;1.93;;;24.40;68.60;;;;;;4891249;29;20814;-70
2022/10/16 11:59:26;;;;;;;1.83;1.67;;;24.70;67.90;;;;;;4893116;29;20572;-70
2022/10/16 12:02:04;;;;;;;1.40;1.30;;;24.90;67.40;;;;;;4895953;29;20952;-70
2022/10/16 12:04:45;;;;;;;1.60;1.50;;;25.10;66.90;;;;;;4896112;29;20479;-70
2022/10/16 12:07:17;;;;;;;2.37;1.93;;;25.30;66.20;;;;;;4884257;29;20457;-70
2022/10/16 12:09:46;;;;;;;1.50;1.40;;;25.50;66.00;;;;;;4897257;29;20465;-70
2022/10/16 12:12:26;;;;;;;1.70;1.60;;;25.60;65.70;;;;;;4897230;29;20479;-71
2022/10/16 12:15:03;;;;;;;1.60;1.50;;;25.70;65.50;;;;;;4891633;29;20469;-69
2022/10/16 12:17:49;;;;;;;2.00;1.90;;;25.70;65.30;;;;;;4890653;29;20470;-69
2022/10/16 12:20:25;;;;;;;1.30;1.30;;;25.80;65.20;;;;;;4881140;29;21000;-69
2022/10/16 12:22:55;;;;;;;3.03;1.77;;;25.90;65.10;;;;;;4885251;29;20559;-68
2022/10/16 12:25:29;;;;;;;1.67;1.57;;;26.00;64.80;;;;;;4898715;29;20798;-69
2022/10/16 12:28:03;;;;;;;1.80;1.70;;;26.00;64.60;;;;;;4896815;29;20466;-69
2022/10/16 12:30:33;;;;;;;1.43;1.33;;;26.10;64.60;;;;;;4889186;29;20457;-69
2022/10/16 12:33:05;;;;;;;1.40;1.30;;;26.10;64.50;;;;;;4895384;29;20892;-69
2022/10/16 12:35:36;;;;;;;1.60;1.50;;;26.10;64.50;;;;;;4898337;29;20811;-69
2022/10/16 12:38:14;;;;;;;1.60;1.50;;;26.10;64.50;;;;;;4897856;29;20712;-69
2022/10/16 12:40:57;;;;;;;1.50;1.40;;;26.10;64.60;;;;;;4897405;29;20456;-69
2022/10/16 12:43:35;;;;;;;1.63;1.53;;;26.10;64.50;;;;;;4891501;29;20505;-69
2022/10/16 12:46:19;;;;;;;1.17;1.10;;;26.10;64.40;;;;;;4891822;29;20466;-69
2022/10/16 12:48:48;;;;;;;1.40;1.30;;;26.10;64.40;;;;;;4890670;29;20950;-69
2022/10/16 12:51:36;;;;;;;1.63;1.53;;;26.10;64.40;;;;;;4897129;29;20534;-69
2022/10/16 12:54:13;;;;;;;1.63;1.53;;;26.10;64.40;;;;;;4895737;29;20497;-69
2022/10/16 12:56:53;;;;;;;1.53;1.43;;;26.10;64.60;;;;;;4891221;29;20460;-69
2022/10/16 12:59:32;;;;;;;1.63;1.53;;;26.00;64.70;;;;;;4897800;29;20460;-69
2022/10/16 13:02:21;;;;;;;1.20;1.20;;;26.00;64.80;;;;;;4896753;29;20455;-69
2022/10/16 13:05:15;;;;;;;1.70;1.60;;;25.90;65.10;;;;;;4890510;29;20472;-68
2022/10/16 13:07:54;;;;;;;1.77;1.67;;;25.90;65.10;;;;;;4899873;29;20454;-69
2022/10/16 13:10:29;;;;;;;1.90;1.60;;;25.90;65.20;;;;;;4896203;29;20466;-69
2022/10/16 13:13:13;;;;;;;1.37;1.27;;;25.90;65.10;;;;;;4896338;29;20463;-69